Terminal Aerodrome Forecast
Issued by NWS Billings, MT

Home | Current Version | Previous Version | Graphics & Text | Print | Product List | Glossary On
Versions: 1 2 3 4 5 6 7 8 9 10 11 12 13 14 15 16 17 18 19 20 21 22 23 24 25 26 27 28 29 30 31 32 33 34 35 36
324
FTUS45 KBYZ 230206 AAA
TAFMLS
TAF AMD
KMLS 230206Z 2302/2324 03007KT P6SM VCSH BKN015 OVC025
     FM230500 06007KT P6SM SCT004 BKN007 OVC012
     FM230900 04007KT 6SM BR BKN004 OVC007
     FM231800 05010KT P6SM SCT007 BKN020=

USA.gov is the U.S. government's official web portal to all federal, state and local government web resources and services.